Time;durP1;ratioP1;P1;durP2;ratioP2;P2;SDS_P1;SDS_P2;PMS_P1;PMS_P2;Temp;Humidity;BMP_temperature;BMP_pressure;BME280_temperature;BME280_humidity;BME280_pressure;Samples;Min_cycle;Max_cycle;Signal;HPM_P1;HPM_P2
2022/01/25 00:27:11;;;;;;;53.65;33.22;;;-1.50;86.00;;;;;;5003723;28;20059;-52
2022/01/25 00:29:48;;;;;;;44.88;26.40;;;-1.60;87.50;;;;;;5051267;28;20040;-51
2022/01/25 00:32:16;;;;;;;43.10;26.17;;;-1.60;87.40;;;;;;5053865;28;20377;-50
2022/01/25 00:34:42;;;;;;;47.20;29.27;;;-1.60;87.50;;;;;;5035014;28;20052;-50
2022/01/25 00:37:08;;;;;;;53.75;34.90;;;-1.90;87.80;;;;;;5053728;28;20369;-51
2022/01/25 00:39:34;;;;;;;72.57;40.75;;;-1.90;88.30;;;;;;5053500;28;20026;-51
2022/01/25 00:42:00;;;;;;;72.47;41.35;;;-2.20;88.40;;;;;;5053153;28;20029;-51
2022/01/25 00:44:30;;;;;;;73.63;41.15;;;-2.20;90.00;;;;;;5053423;28;20036;-51
2022/01/25 00:46:56;;;;;;;80.80;46.92;;;-2.10;88.90;;;;;;5053336;28;20122;-51
2022/01/25 00:49:27;;;;;;;45.70;28.52;;;-2.10;88.60;;;;;;5053979;28;20057;-51
2022/01/25 00:56:49;;;;;;;69.07;41.13;;;-2.20;88.40;;;;;;5019896;28;20447;-51
2022/01/25 00:59:25;;;;;;;88.57;51.20;;;-2.20;89.30;;;;;;5054074;28;20047;-50
2022/01/25 01:01:53;;;;;;;79.50;47.10;;;-2.10;88.60;;;;;;5054974;28;20059;-51
2022/01/25 01:04:20;;;;;;;69.30;42.00;;;-2.00;88.50;;;;;;5019368;28;20035;-51
2022/01/25 01:06:47;;;;;;;71.13;39.90;;;-2.00;88.70;;;;;;5052913;28;20037;-51
2022/01/25 01:09:14;;;;;;;68.03;38.35;;;-2.10;88.60;;;;;;5053050;28;20051;-51
2022/01/25 01:11:53;;;;;;;63.65;38.03;;;-1.90;88.70;;;;;;5062920;28;20032;-52
2022/01/25 01:14:39;;;;;;;70.65;39.50;;;-1.90;88.40;;;;;;5073139;28;20024;-55
2022/01/25 01:36:30;;;;;;;72.82;42.20;;;-2.80;89.90;;;;;;5030817;28;20025;-51
2022/01/25 01:45:06;;;;;;;111.25;53.90;;;-2.50;89.40;;;;;;4958464;28;20078;-50
2022/01/25 01:47:48;;;;;;;54.13;35.05;;;-2.70;87.80;;;;;;4971329;28;20152;-51
2022/01/25 01:50:26;;;;;;;32.85;21.83;;;-3.20;96.20;;;;;;4971463;28;20386;-51
2022/01/25 01:52:52;;;;;;;36.10;19.58;;;-3.70;90.20;;;;;;4970899;28;20066;-50
2022/01/25 01:55:20;;;;;;;53.55;32.38;;;-4.40;91.00;;;;;;4939414;28;20050;-51
2022/01/25 01:57:49;;;;;;;55.28;36.30;;;-4.50;91.70;;;;;;4987617;28;20396;-51
2022/01/25 02:00:16;;;;;;;82.28;52.35;;;-4.20;91.70;;;;;;4985504;28;20427;-51
2022/01/25 02:02:43;;;;;;;79.35;45.10;;;-4.00;91.50;;;;;;4971760;28;20041;-51
2022/01/25 02:05:09;;;;;;;104.10;58.80;;;-3.80;91.30;;;;;;4973451;28;20113;-51
2022/01/25 02:07:35;;;;;;;88.60;51.83;;;-3.40;91.10;;;;;;4975369;28;20038;-51
2022/01/25 02:10:01;;;;;;;96.38;52.60;;;;;;;;;;4975034;28;20082;-50
2022/01/25 02:12:28;;;;;;;68.75;38.20;;;;;;;;;;5009664;28;20411;-51
2022/01/25 02:14:55;;;;;;;68.28;38.20;;;;;;;;;;5054011;28;20040;-51
2022/01/25 02:17:50;;;;;;;61.05;36.33;;;;;;;;;;5053923;28;20056;-51
2022/01/25 02:22:56;;;;;;;56.70;32.35;;;;;;;;;;5053983;28;20401;-51
2022/01/25 02:25:23;;;;;;;49.83;31.33;;;;;;;;;;5053699;28;20059;-52
2022/01/25 02:27:49;;;;;;;49.53;30.45;;;;;;;;;;5053815;28;20068;-51
2022/01/25 02:30:15;;;;;;;54.20;31.05;;;;;;;;;;5053644;28;20436;-51
2022/01/25 02:32:41;;;;;;;50.50;31.77;;;-2.20;88.60;;;;;;5036928;28;20079;-51
2022/01/25 02:35:07;;;;;;;51.92;31.58;;;-2.20;88.80;;;;;;5063688;28;20040;-51
2022/01/25 02:37:34;;;;;;;48.65;29.25;;;-2.10;88.40;;;;;;5023996;28;20037;-51
2022/01/25 02:40:00;;;;;;;52.13;31.75;;;-2.20;89.90;;;;;;5057732;28;20020;-51
2022/01/25 02:42:26;;;;;;;50.55;28.55;;;-2.20;89.20;;;;;;5056956;28;20037;-51
2022/01/25 02:44:52;;;;;;;50.65;29.23;;;-2.20;89.60;;;;;;5057119;28;20044;-51
2022/01/25 02:50:04;;;;;;;50.30;30.45;;;-2.40;89.80;;;;;;5075936;28;20055;-51
2022/01/25 02:52:31;;;;;;;59.25;38.35;;;-2.30;89.40;;;;;;5075336;28;20040;-50
2022/01/25 02:54:56;;;;;;;52.72;30.58;;;-2.50;88.90;;;;;;5075526;28;20033;-51
2022/01/25 02:57:23;;;;;;;47.88;28.50;;;-2.60;88.90;;;;;;5075468;28;20469;-51
2022/01/25 02:59:49;;;;;;;44.70;25.27;;;-2.80;89.30;;;;;;5075422;28;20026;-51
2022/01/25 03:02:15;;;;;;;44.08;25.67;;;-2.90;89.40;;;;;;5075098;28;20028;-51
2022/01/25 03:04:41;;;;;;;45.17;27.52;;;-2.70;89.20;;;;;;5039875;28;20044;-50
2022/01/25 03:07:08;;;;;;;52.42;32.63;;;-2.60;88.90;;;;;;5075302;28;20487;-51
2022/01/25 03:09:33;;;;;;;59.10;34.42;;;-2.60;89.00;;;;;;5075078;28;20517;-51
2022/01/25 03:12:03;;;;;;;55.95;33.53;;;-2.40;89.20;;;;;;5075035;28;20037;-51
2022/01/25 03:14:32;;;;;;;53.30;31.85;;;-2.30;89.30;;;;;;5075206;28;20043;-51
2022/01/25 03:22:06;;;;;;;58.50;35.17;;;-2.40;88.20;;;;;;5075031;28;20039;-51
2022/01/25 03:24:32;;;;;;;44.08;27.13;;;-2.70;88.70;;;;;;5074811;28;20037;-51
2022/01/25 03:26:58;;;;;;;36.53;22.90;;;-3.10;89.50;;;;;;5074771;28;20032;-51
2022/01/25 03:29:24;;;;;;;36.38;23.67;;;-3.10;90.00;;;;;;5074773;28;20044;-50
2022/01/25 03:31:50;;;;;;;43.53;25.00;;;-3.10;89.70;;;;;;5074691;28;20495;-51
2022/01/25 03:34:16;;;;;;;42.13;25.73;;;-3.20;89.80;;;;;;5074622;28;20111;-51
2022/01/25 03:36:42;;;;;;;41.90;26.23;;;-3.50;90.30;;;;;;5074647;28;20063;-50
2022/01/25 03:39:09;;;;;;;43.78;24.73;;;-3.30;90.80;;;;;;5074713;28;20039;-51
2022/01/25 03:41:35;;;;;;;34.35;22.90;;;-3.50;90.20;;;;;;5074368;28;20052;-50
2022/01/25 03:44:03;;;;;;;30.40;19.63;;;-3.50;90.50;;;;;;5074450;28;20025;-50
2022/01/25 03:46:40;;;;;;;45.08;27.10;;;-3.40;90.40;;;;;;5038994;28;20109;-51
2022/01/25 03:51:51;;;;;;;37.47;24.42;;;-3.40;90.60;;;;;;5074364;28;20048;-51
2022/01/25 03:54:17;;;;;;;40.30;25.98;;;-3.20;90.50;;;;;;5074214;28;20480;-51
2022/01/25 03:56:45;;;;;;;44.03;28.50;;;-3.20;90.50;;;;;;5074196;28;20033;-51
2022/01/25 03:59:11;;;;;;;71.82;34.58;;;-3.10;90.40;;;;;;5056127;28;20037;-51
2022/01/25 04:01:37;;;;;;;30.77;18.88;;;-3.20;90.00;;;;;;5063680;28;20120;-51
2022/01/25 04:04:11;;;;;;;26.27;15.10;;;-3.50;90.10;;;;;;5019045;28;20044;-52
2022/01/25 04:06:38;;;;;;;28.70;16.83;;;-4.10;90.70;;;;;;5054168;28;20052;-50
2022/01/25 04:09:07;;;;;;;41.53;22.58;;;-4.10;91.40;;;;;;5054010;28;20033;-51
2022/01/25 04:11:34;;;;;;;52.40;26.40;;;-4.00;92.30;;;;;;5053875;28;20491;-51
2022/01/25 04:14:00;;;;;;;32.05;19.63;;;-3.90;91.60;;;;;;5054211;28;20120;-51
2022/01/25 04:16:34;;;;;;;19.42;13.02;;;;;;;;;;5053933;28;20116;-51
2022/01/25 04:26:43;;;;;;;34.88;19.13;;;-4.80;92.50;;;;;;5054050;28;20388;-51
2022/01/25 04:29:09;;;;;;;40.15;23.17;;;-4.80;92.70;;;;;;5018557;28;20037;-50
2022/01/25 04:31:35;;;;;;;48.38;25.25;;;-4.90;93.20;;;;;;5053365;28;20504;-51
2022/01/25 04:34:24;;;;;;;38.55;21.50;;;-5.00;93.40;;;;;;5053903;28;20044;-50
2022/01/25 04:52:55;;;;;;;62.58;31.10;;;-5.20;95.30;;;;;;4972486;28;20050;-50
2022/01/25 04:55:29;;;;;;;52.53;28.83;;;-5.10;95.60;;;;;;4972320;28;20369;-51
2022/01/25 04:58:02;;;;;;;49.40;28.10;;;-4.70;94.90;;;;;;4972581;28;20030;-52
2022/01/25 05:00:29;;;;;;;53.63;28.90;;;-4.40;94.10;;;;;;4972168;28;20070;-52
2022/01/25 05:03:08;;;;;;;40.17;22.67;;;-4.00;93.60;;;;;;4972190;28;20069;-51
2022/01/25 05:05:40;;;;;;;35.58;19.90;;;-3.70;93.00;;;;;;4972188;28;20502;-51
2022/01/25 05:10:37;;;;;;;48.35;28.13;;;-3.40;92.20;;;;;;4972325;28;20494;-51
2022/01/25 05:13:40;;;;;;;103.97;49.83;;;;;;;;;;4972785;28;20034;-51
2022/01/25 05:18:51;;;;;;;84.35;45.42;;;-3.10;91.60;;;;;;4972587;28;20073;-52
2022/01/25 05:24:01;;;;;;;51.70;31.45;;;-2.90;91.50;;;;;;5065584;28;20128;-51
2022/01/25 05:26:27;;;;;;;45.88;28.30;;;-2.80;91.60;;;;;;5067093;28;20111;-52
2022/01/25 05:28:53;;;;;;;77.38;34.80;;;-2.80;91.40;;;;;;5063742;28;20404;-51
2022/01/25 05:31:19;;;;;;;69.82;32.15;;;-2.70;91.20;;;;;;5065924;28;20036;-53
2022/01/25 05:33:45;;;;;;;76.82;35.45;;;-2.80;91.00;;;;;;5016646;28;20044;-52
2022/01/25 05:36:11;;;;;;;74.50;34.83;;;-2.70;90.80;;;;;;5051842;28;20484;-51
2022/01/25 05:38:37;;;;;;;73.00;35.13;;;-2.80;90.90;;;;;;5059402;28;20029;-51
2022/01/25 05:41:04;;;;;;;88.38;39.35;;;-2.80;91.30;;;;;;5057344;28;20036;-51
2022/01/25 05:46:18;;;;;;;82.25;39.00;;;-2.70;91.00;;;;;;5064321;28;20040;-52
2022/01/25 05:48:45;;;;;;;70.15;36.88;;;-2.60;91.20;;;;;;5030037;28;20044;-52
2022/01/25 05:51:11;;;;;;;74.72;35.03;;;-2.70;91.10;;;;;;5066197;28;20037;-52
2022/01/25 05:53:37;;;;;;;66.20;33.25;;;-2.80;91.70;;;;;;5063096;28;20025;-53
2022/01/25 05:56:04;;;;;;;72.65;35.67;;;-2.70;91.20;;;;;;5069178;28;20036;-52
2022/01/25 05:58:30;;;;;;;68.45;36.70;;;-2.70;91.20;;;;;;5063539;28;20127;-53
2022/01/25 06:00:56;;;;;;;68.60;36.10;;;-2.80;91.30;;;;;;5075297;28;20459;-53
2022/01/25 06:03:22;;;;;;;66.97;39.78;;;-2.80;91.20;;;;;;5075393;28;20484;-52
2022/01/25 06:05:48;;;;;;;64.63;36.13;;;-2.90;91.20;;;;;;5075099;28;20028;-53
2022/01/25 06:08:14;;;;;;;87.35;48.08;;;-3.00;91.80;;;;;;5065227;28;20072;-51
2022/01/25 06:10:40;;;;;;;106.07;56.10;;;-3.00;91.90;;;;;;5036173;28;20049;-51
2022/01/25 06:13:06;;;;;;;95.80;54.13;;;-3.20;91.80;;;;;;5069068;28;20473;-53
2022/01/25 06:15:32;;;;;;;90.05;59.63;;;-3.20;91.80;;;;;;5075254;28;20043;-53
2022/01/25 06:17:58;;;;;;;121.65;76.95;;;-3.40;92.10;;;;;;5006521;28;20048;-51
2022/01/25 06:20:24;;;;;;;72.53;47.80;;;-3.40;92.00;;;;;;5039473;28;20051;-52
2022/01/25 06:22:50;;;;;;;58.58;37.85;;;-3.30;91.60;;;;;;5039337;28;20127;-52
2022/01/25 06:25:16;;;;;;;64.45;39.17;;;-3.70;91.50;;;;;;5022999;28;20149;-52
2022/01/25 06:27:43;;;;;;;62.10;37.58;;;-4.00;91.90;;;;;;5075029;28;20033;-52
2022/01/25 06:30:15;;;;;;;58.65;34.45;;;-4.60;92.20;;;;;;5074735;28;20562;-52
2022/01/25 06:32:41;;;;;;;64.63;35.90;;;-5.00;94.80;;;;;;5067558;28;20045;-53
2022/01/25 06:35:07;;;;;;;55.00;33.75;;;-4.90;93.60;;;;;;5010375;28;20547;-51
2022/01/25 06:37:34;;;;;;;52.15;29.80;;;-4.80;94.30;;;;;;5003017;28;20049;-52
2022/01/25 06:40:00;;;;;;;48.92;29.10;;;-4.50;93.80;;;;;;5039078;28;20039;-51
2022/01/25 06:42:29;;;;;;;34.60;20.60;;;;;;;;;;5038577;28;20123;-53
2022/01/25 06:44:59;;;;;;;29.85;20.73;;;;;;;;;;5068415;28;20025;-52
2022/01/25 06:47:25;;;;;;;21.63;12.55;;;-1.70;91.20;;;;;;5054313;28;20045;-51
2022/01/25 06:49:51;;;;;;;25.02;16.15;;;-1.80;90.10;;;;;;5058092;28;20062;-53
2022/01/25 06:52:17;;;;;;;30.77;19.58;;;-1.20;89.90;;;;;;5038642;28;20485;-53
2022/01/25 06:54:42;;;;;;;26.00;16.52;;;-0.10;89.00;;;;;;5051335;28;20041;-56
2022/01/25 06:57:08;;;;;;;30.25;17.35;;;0.60;86.20;;;;;;5035620;28;20048;-52
2022/01/25 06:59:34;;;;;;;28.35;18.92;;;0.80;84.10;;;;;;5035495;28;20492;-53
2022/01/25 07:02:00;;;;;;;26.30;19.15;;;2.00;87.50;;;;;;4987273;28;20037;-53
2022/01/25 07:04:26;;;;;;;27.52;20.48;;;;;;;;;;5058544;28;20043;-51
2022/01/25 07:06:52;;;;;;;25.73;17.50;;;6.60;76.90;;;;;;5062283;28;20492;-52
2022/01/25 07:09:18;;;;;;;34.70;23.15;;;7.00;76.50;;;;;;5062343;28;20025;-52
2022/01/25 07:11:44;;;;;;;27.42;19.08;;;9.10;74.00;;;;;;5062670;28;20029;-53
2022/01/25 07:14:09;;;;;;;25.85;18.05;;;9.80;72.00;;;;;;5061458;28;20032;-52
2022/01/25 07:16:35;;;;;;;29.35;21.60;;;9.80;70.30;;;;;;5063161;28;20074;-53
2022/01/25 07:19:02;;;;;;;28.50;20.05;;;11.10;69.90;;;;;;5010717;28;20444;-52
2022/01/25 07:21:28;;;;;;;32.33;21.13;;;12.20;68.60;;;;;;5062951;28;20031;-52
2022/01/25 07:23:53;;;;;;;29.80;20.70;;;12.80;67.20;;;;;;5017777;28;20045;-52
2022/01/25 07:26:19;;;;;;;33.65;23.23;;;13.20;65.90;;;;;;5070795;28;20039;-52
2022/01/25 07:28:46;;;;;;;32.22;25.60;;;13.60;65.50;;;;;;5073738;28;20032;-52
2022/01/25 07:31:12;;;;;;;34.80;26.17;;;13.70;64.40;;;;;;5073513;28;20603;-52
2022/01/25 07:33:38;;;;;;;34.60;27.33;;;14.40;63.50;;;;;;5073781;28;20119;-52
2022/01/25 07:36:05;;;;;;;37.75;26.83;;;14.80;62.90;;;;;;5071454;28;20025;-52
2022/01/25 07:38:31;;;;;;;35.03;26.70;;;15.10;62.60;;;;;;5056033;28;20476;-53
2022/01/25 07:40:57;;;;;;;37.25;25.27;;;15.30;62.30;;;;;;5057786;28;20442;-52
2022/01/25 07:43:23;;;;;;;35.10;25.55;;;15.60;61.20;;;;;;5064783;28;20424;-52
2022/01/25 07:45:52;;;;;;;36.97;24.83;;;15.60;61.90;;;;;;5070724;28;20036;-53
2022/01/25 07:48:19;;;;;;;34.80;24.38;;;15.70;60.60;;;;;;4998126;28;20417;-52
2022/01/25 07:50:45;;;;;;;32.60;25.50;;;16.20;60.50;;;;;;5019289;28;20046;-53
2022/01/25 07:53:11;;;;;;;38.10;26.40;;;16.70;59.80;;;;;;5020751;28;20034;-53
2022/01/25 07:55:37;;;;;;;34.65;26.83;;;16.80;59.30;;;;;;5021013;28;20037;-51
2022/01/25 07:58:04;;;;;;;48.13;34.67;;;16.60;59.00;;;;;;5027891;28;20041;-51
2022/01/25 08:00:30;;;;;;;43.13;32.47;;;16.90;58.40;;;;;;5030710;28;20025;-52
2022/01/25 08:02:56;;;;;;;51.80;35.05;;;17.00;58.40;;;;;;5030385;28;20049;-52
2022/01/25 08:05:24;;;;;;;62.40;30.92;;;17.40;57.60;;;;;;5030724;28;20044;-52
2022/01/25 08:07:50;;;;;;;39.67;28.38;;;17.60;57.50;;;;;;5030215;28;20149;-52
2022/01/25 08:10:16;;;;;;;39.28;26.30;;;17.40;56.80;;;;;;5030492;28;20045;-52
2022/01/25 08:12:42;;;;;;;35.50;27.85;;;17.40;56.40;;;;;;5013935;28;20075;-51
2022/01/25 08:15:09;;;;;;;42.95;30.40;;;17.40;56.20;;;;;;4981298;28;20111;-52
2022/01/25 08:17:35;;;;;;;41.20;30.40;;;17.30;56.30;;;;;;4981221;28;20176;-52
2022/01/25 08:20:02;;;;;;;47.88;31.40;;;17.50;57.10;;;;;;5064673;28;20032;-52
2022/01/25 08:22:29;;;;;;;47.42;29.63;;;17.00;56.40;;;;;;5072620;28;20047;-51
2022/01/25 08:24:55;;;;;;;40.28;25.75;;;17.30;56.40;;;;;;5071965;28;20039;-53
2022/01/25 08:27:23;;;;;;;47.55;28.55;;;17.60;55.50;;;;;;5072417;28;20031;-52
2022/01/25 08:29:50;;;;;;;38.33;28.67;;;;;;;;;;5072552;28;20024;-51
2022/01/25 08:32:16;;;;;;;69.90;40.72;;;18.30;66.70;;;;;;5053614;28;20044;-53
2022/01/25 08:34:42;;;;;;;72.13;37.42;;;18.10;69.80;;;;;;5071961;28;20480;-52
2022/01/25 08:37:08;;;;;;;49.08;31.15;;;18.20;69.20;;;;;;4986324;28;20082;-52
2022/01/25 08:39:34;;;;;;;33.55;25.85;;;18.10;55.00;;;;;;5053463;28;20132;-52
2022/01/25 08:42:00;;;;;;;38.35;25.73;;;18.10;55.60;;;;;;4987401;28;20029;-52
2022/01/25 08:44:26;;;;;;;34.65;24.38;;;18.20;54.70;;;;;;5067975;28;20021;-52
2022/01/25 08:46:52;;;;;;;30.25;22.77;;;18.10;54.80;;;;;;5061339;28;20054;-52
2022/01/25 08:49:20;;;;;;;39.03;23.73;;;18.00;54.60;;;;;;5062575;28;20512;-51
2022/01/25 08:51:48;;;;;;;32.80;23.23;;;18.50;54.00;;;;;;5061035;28;20061;-52
2022/01/25 08:54:14;;;;;;;30.00;22.92;;;18.40;54.00;;;;;;5061260;28;20090;-52
2022/01/25 08:56:41;;;;;;;27.75;21.90;;;18.10;54.20;;;;;;5065032;28;20035;-53
2022/01/25 08:59:07;;;;;;;32.38;24.50;;;18.00;54.00;;;;;;5062672;28;20460;-53
2022/01/25 09:01:34;;;;;;;31.90;22.23;;;18.60;53.80;;;;;;5064366;28;20025;-53
2022/01/25 09:04:01;;;;;;;28.88;22.15;;;18.40;53.50;;;;;;5010990;28;20116;-53
2022/01/25 09:06:27;;;;;;;30.65;22.17;;;18.70;53.70;;;;;;5026600;28;20042;-53
2022/01/25 09:08:59;;;;;;;29.90;21.38;;;18.40;53.90;;;;;;5029988;28;20091;-53
2022/01/25 09:11:25;;;;;;;;;;;18.70;53.60;;;;;;5030182;28;20075;-53
2022/01/25 09:13:50;;;;;;;27.10;21.17;;;18.60;53.50;;;;;;5029687;28;19906;-53
2022/01/25 09:16:16;;;;;;;34.30;28.13;;;18.60;53.70;;;;;;5033832;28;20520;-53
2022/01/25 09:18:43;;;;;;;25.38;20.88;;;18.50;53.30;;;;;;5017795;28;20044;-53
2022/01/25 09:21:09;;;;;;;38.22;25.55;;;18.50;53.00;;;;;;5035189;28;20060;-53
2022/01/25 09:23:35;;;;;;;25.08;20.08;;;19.00;53.20;;;;;;5034940;28;20029;-52
2022/01/25 09:26:02;;;;;;;32.65;23.73;;;19.00;53.00;;;;;;5015899;28;20037;-53
2022/01/25 09:28:28;;;;;;;29.63;20.63;;;19.00;52.80;;;;;;5025461;28;20513;-53
2022/01/25 09:30:54;;;;;;;24.10;19.08;;;19.20;52.60;;;;;;5024858;28;20505;-53
2022/01/25 09:33:21;;;;;;;37.55;27.40;;;19.10;52.40;;;;;;5025132;28;20152;-53
2022/01/25 09:35:47;;;;;;;27.70;23.48;;;18.90;53.00;;;;;;5055912;28;20033;-54
2022/01/25 09:38:13;;;;;;;24.15;19.35;;;19.10;52.90;;;;;;5031836;28;20039;-53
2022/01/25 09:40:39;;;;;;;38.47;26.48;;;19.00;52.00;;;;;;5029799;28;20483;-53
2022/01/25 09:43:07;;;;;;;48.63;31.08;;;19.30;52.70;;;;;;5069835;28;20027;-52
2022/01/25 09:45:34;;;;;;;31.60;25.73;;;17.50;53.60;;;;;;5065895;28;20748;-53
2022/01/25 09:48:00;;;;;;;106.47;53.40;;;18.70;53.20;;;;;;5046516;28;20052;-54
2022/01/25 09:50:26;;;;;;;79.78;45.97;;;17.90;53.70;;;;;;5066424;28;20025;-54
2022/01/25 09:52:53;;;;;;;57.47;34.58;;;17.00;53.70;;;;;;5060424;28;20104;-54
2022/01/25 09:55:22;;;;;;;32.28;29.08;;;18.30;54.10;;;;;;5058985;28;20021;-54
2022/01/25 09:57:49;;;;;;;153.38;68.53;;;18.70;53.90;;;;;;5062229;28;20024;-54
2022/01/25 10:00:19;;;;;;;89.55;51.00;;;17.70;53.80;;;;;;5026009;28;20127;-54
2022/01/25 10:05:45;;;;;;;178.25;75.50;;;16.50;55.30;;;;;;5054767;28;20051;-50
2022/01/25 10:08:14;;;;;;;37.83;28.73;;;15.70;56.00;;;;;;5056164;28;20464;-50
2022/01/25 10:10:41;;;;;;;211.98;88.82;;;16.90;55.40;;;;;;5056223;28;20020;-52
2022/01/25 10:13:12;;;;;;;40.67;32.88;;;15.50;55.00;;;;;;5071680;28;20369;-51
2022/01/25 10:15:38;;;;;;;78.82;41.28;;;16.60;55.70;;;;;;5076177;28;20059;-51
2022/01/25 10:18:05;;;;;;;53.95;31.10;;;16.20;55.00;;;;;;5075494;28;20032;-51
2022/01/25 10:20:35;;;;;;;28.23;24.67;;;15.70;56.00;;;;;;5056685;28;20419;-51
2022/01/25 10:23:10;;;;;;;27.33;22.70;;;15.40;56.20;;;;;;5074543;28;20025;-51
2022/01/25 10:25:43;;;;;;;101.95;64.57;;;15.40;56.50;;;;;;5071925;28;20034;-51
2022/01/25 10:28:12;;;;;;;43.08;37.97;;;16.50;55.30;;;;;;5034285;28;20453;-51
2022/01/25 10:30:53;;;;;;;66.70;62.08;;;15.60;54.60;;;;;;5065690;28;20103;-51
2022/01/25 10:33:35;;;;;;;65.53;60.60;;;16.60;55.70;;;;;;5070953;28;20060;-52
2022/01/25 10:36:11;;;;;;;72.88;61.40;;;16.90;55.50;;;;;;5065915;28;20039;-51
2022/01/25 10:38:37;;;;;;;215.88;98.85;;;13.20;56.30;;;;;;5043638;28;20079;-51
2022/01/25 10:41:06;;;;;;;46.45;42.72;;;12.20;58.20;;;;;;5067552;28;20407;-50
2022/01/25 10:43:34;;;;;;;517.72;273.75;;;11.00;59.80;;;;;;5055649;28;20025;-52
2022/01/25 10:46:11;;;;;;;59.05;45.30;;;12.70;59.00;;;;;;5055608;28;20029;-52
2022/01/25 10:48:39;;;;;;;64.25;57.92;;;12.60;58.20;;;;;;5032865;28;20381;-53
2022/01/25 10:51:11;;;;;;;78.20;54.63;;;12.20;57.70;;;;;;5057303;28;20052;-53
2022/01/25 10:53:38;;;;;;;108.63;65.78;;;11.70;58.90;;;;;;5075640;28;20468;-52
2022/01/25 10:56:06;;;;;;;72.60;49.78;;;12.30;59.50;;;;;;5075252;28;20053;-52
2022/01/25 10:58:38;;;;;;;18.25;16.60;;;12.90;58.10;;;;;;5074533;28;20105;-52
2022/01/25 11:01:04;;;;;;;20.30;17.13;;;14.10;57.00;;;;;;5072686;28;20622;-52
2022/01/25 11:03:34;;;;;;;26.02;23.67;;;14.50;56.50;;;;;;5075413;28;20036;-52
2022/01/25 11:06:18;;;;;;;31.60;28.80;;;15.20;56.60;;;;;;5075177;28;20554;-52
2022/01/25 11:08:47;;;;;;;24.42;22.15;;;15.80;55.10;;;;;;5075348;28;20511;-50
2022/01/25 11:11:24;;;;;;;23.77;21.30;;;16.00;55.70;;;;;;5074999;28;20033;-52
2022/01/25 11:13:52;;;;;;;28.48;25.83;;;16.10;55.40;;;;;;5057366;28;20117;-53
2022/01/25 11:16:18;;;;;;;20.48;17.17;;;16.10;54.90;;;;;;5032805;28;20037;-52
2022/01/25 11:18:44;;;;;;;26.67;19.83;;;15.10;55.50;;;;;;4983098;28;20649;-52
2022/01/25 11:21:11;;;;;;;15.18;13.65;;;15.70;56.30;;;;;;5027697;28;20040;-52
2022/01/25 11:23:39;;;;;;;19.52;15.95;;;15.70;55.10;;;;;;5013156;28;20022;-52
2022/01/25 11:26:08;;;;;;;20.38;14.93;;;15.10;54.80;;;;;;4979708;28;20172;-52
2022/01/25 11:28:36;;;;;;;16.48;14.85;;;15.40;55.60;;;;;;4983504;28;20609;-52
2022/01/25 11:31:08;;;;;;;16.13;14.18;;;15.90;54.50;;;;;;4987386;28;20074;-52
2022/01/25 11:33:39;;;;;;;17.63;14.15;;;15.50;55.00;;;;;;4981796;28;20089;-52
2022/01/25 11:36:08;;;;;;;18.27;16.58;;;14.70;54.00;;;;;;4989642;28;20465;-52
2022/01/25 11:38:41;;;;;;;12.98;11.77;;;15.40;53.60;;;;;;4974571;28;20515;-52
2022/01/25 11:41:11;;;;;;;36.60;16.92;;;14.30;52.90;;;;;;4991478;28;20061;-53
2022/01/25 11:43:37;;;;;;;13.65;12.23;;;13.60;54.70;;;;;;4974909;28;20038;-52
2022/01/25 11:46:05;;;;;;;18.75;12.70;;;14.70;54.70;;;;;;4974913;28;20126;-52
2022/01/25 11:48:43;;;;;;;14.15;12.75;;;14.60;55.50;;;;;;5010941;28;20058;-52
2022/01/25 11:51:18;;;;;;;44.17;15.07;;;13.90;53.80;;;;;;5011039;28;20038;-52
2022/01/25 11:53:48;;;;;;;15.52;13.98;;;13.80;55.50;;;;;;5011112;28;20112;-52
2022/01/25 11:56:16;;;;;;;14.65;11.57;;;14.80;55.10;;;;;;5010917;28;20030;-52
2022/01/25 11:58:51;;;;;;;23.90;14.50;;;14.70;55.00;;;;;;4987925;28;20119;-51
2022/01/25 12:01:19;;;;;;;21.15;14.93;;;15.00;54.90;;;;;;5073154;28;20021;-51
2022/01/25 12:04:06;;;;;;;39.42;17.88;;;14.70;55.40;;;;;;5072971;28;20029;-53
2022/01/25 12:06:38;;;;;;;20.75;14.00;;;13.90;56.10;;;;;;5072934;28;20539;-52
2022/01/25 12:09:42;;;;;;;62.70;28.48;;;13.50;56.00;;;;;;5073021;28;20028;-52
2022/01/25 12:12:13;;;;;;;20.95;14.82;;;14.40;56.30;;;;;;5072653;28;20113;-53
2022/01/25 12:14:44;;;;;;;30.92;17.83;;;13.40;55.20;;;;;;5072732;28;20032;-52
2022/01/25 12:17:25;;;;;;;14.45;11.02;;;12.40;55.60;;;;;;5072644;28;20473;-52
2022/01/25 12:19:55;;;;;;;15.52;12.70;;;13.10;56.60;;;;;;5072665;28;20032;-53
2022/01/25 12:22:36;;;;;;;11.18;9.27;;;13.50;56.30;;;;;;5072534;28;20054;-52
2022/01/25 12:25:23;;;;;;;83.85;47.63;;;14.00;55.60;;;;;;5072603;28;20039;-52
2022/01/25 12:28:03;;;;;;;12.63;10.20;;;12.60;55.60;;;;;;5070109;28;20159;-51
2022/01/25 12:30:40;;;;;;;16.25;11.73;;;12.80;56.40;;;;;;5072419;28;20032;-51
2022/01/25 12:33:22;;;;;;;15.90;10.52;;;12.20;57.50;;;;;;5072556;28;20036;-52
2022/01/25 12:35:59;;;;;;;13.35;10.07;;;12.10;58.20;;;;;;5072625;28;20055;-52
2022/01/25 12:38:31;;;;;;;18.80;10.48;;;12.50;57.30;;;;;;5072509;28;20043;-51
2022/01/25 12:41:00;;;;;;;19.15;13.27;;;12.50;57.30;;;;;;5072387;28;20020;-52
2022/01/25 12:43:51;;;;;;;19.95;12.30;;;11.90;57.30;;;;;;5072426;28;20107;-51
2022/01/25 12:46:27;;;;;;;14.05;10.13;;;12.40;57.40;;;;;;5072256;28;20488;-51
2022/01/25 12:49:06;;;;;;;15.90;11.02;;;12.10;56.70;;;;;;5071990;28;20048;-51
2022/01/25 12:51:37;;;;;;;60.05;32.45;;;12.00;56.90;;;;;;5055104;28;20047;-51
2022/01/25 12:54:07;;;;;;;16.30;11.02;;;11.30;57.30;;;;;;5053390;28;20033;-51
2022/01/25 12:56:42;;;;;;;13.63;9.70;;;11.50;58.70;;;;;;5072768;28;20116;-50
2022/01/25 12:59:18;;;;;;;25.02;14.63;;;11.80;57.60;;;;;;5071713;28;20024;-52
2022/01/25 13:01:45;;;;;;;21.38;14.77;;;12.00;58.40;;;;;;5063585;28;20029;-51
2022/01/25 13:04:12;;;;;;;25.08;14.93;;;12.40;57.70;;;;;;5045133;28;20420;-50
2022/01/25 13:06:42;;;;;;;46.33;32.03;;;12.30;57.50;;;;;;5061800;28;20105;-50
2022/01/25 13:09:45;;;;;;;25.58;19.95;;;12.50;57.60;;;;;;5057558;28;20091;-51
2022/01/25 13:17:14;;;;;;;17.05;9.93;;;12.00;56.70;;;;;;5061928;28;20036;-51
2022/01/25 13:19:46;;;;;;;19.58;11.00;;;11.40;57.50;;;;;;5041042;28;20040;-50
2022/01/25 13:22:30;;;;;;;79.63;17.80;;;10.90;58.70;;;;;;5061797;28;20032;-50
2022/01/25 13:27:46;;;;;;;15.23;10.43;;;11.10;60.10;;;;;;5063796;28;20713;-48
2022/01/25 13:32:59;;;;;;;18.30;11.60;;;10.90;59.50;;;;;;5021437;28;20036;-47
2022/01/25 13:35:30;;;;;;;37.40;16.25;;;10.80;58.90;;;;;;5062823;28;20107;-49
2022/01/25 13:38:09;;;;;;;18.77;12.68;;;10.90;60.40;;;;;;5063193;28;20028;-48
2022/01/25 13:40:47;;;;;;;21.63;13.85;;;10.80;59.30;;;;;;5044519;28;20040;-48
2022/01/25 13:46:09;;;;;;;23.27;13.15;;;10.30;60.60;;;;;;5053148;28;20039;-47
2022/01/25 13:48:36;;;;;;;17.92;10.60;;;10.50;60.60;;;;;;5052844;28;20052;-47
2022/01/25 13:51:08;;;;;;;33.00;16.25;;;9.00;61.10;;;;;;5052890;28;20033;-46
2022/01/25 13:53:35;;;;;;;;;;;8.40;61.90;;;;;;5053280;28;20029;-47
2022/01/25 13:56:03;;;;;;;21.65;11.93;;;8.80;63.50;;;;;;5052823;28;20292;-46
2022/01/25 13:58:33;;;;;;;26.65;14.07;;;7.80;64.00;;;;;;5001458;28;20062;-47
2022/01/25 14:01:01;;;;;;;20.52;13.10;;;8.00;64.10;;;;;;5054296;28;20465;-48
2022/01/25 14:03:33;;;;;;;21.60;13.10;;;8.50;62.80;;;;;;5038108;28;20033;-46
2022/01/25 14:05:59;;;;;;;45.78;23.08;;;8.70;63.50;;;;;;5056512;28;20033;-45
2022/01/25 14:09:05;;;;;;;22.00;12.38;;;8.90;63.00;;;;;;5021206;28;20094;-47
2022/01/25 14:22:49;;;;;;;19.98;14.15;;;6.10;68.00;;;;;;4975474;28;20046;-47
2022/01/25 14:25:32;;;;;;;20.23;11.85;;;6.60;68.70;;;;;;4975221;28;20435;-47
2022/01/25 14:28:01;;;;;;;30.30;17.52;;;6.90;66.60;;;;;;4975271;28;20035;-46
2022/01/25 14:30:31;;;;;;;28.42;17.33;;;7.40;68.00;;;;;;4942147;29;20380;-47
2022/01/25 14:33:13;;;;;;;24.80;14.90;;;8.00;67.00;;;;;;4933930;29;20055;-47
2022/01/25 14:36:04;;;;;;;21.63;16.27;;;8.20;65.90;;;;;;4936388;29;20088;-46
2022/01/25 14:38:34;;;;;;;24.10;15.18;;;8.10;66.10;;;;;;4936582;29;20062;-47
2022/01/25 14:41:11;;;;;;;24.00;14.63;;;8.00;66.60;;;;;;4936493;29;20469;-47
2022/01/25 14:43:49;;;;;;;22.38;13.85;;;8.20;66.30;;;;;;4937147;29;20493;-46
2022/01/25 14:46:21;;;;;;;22.02;14.10;;;8.00;67.20;;;;;;4953993;29;20039;-47
2022/01/25 14:49:16;;;;;;;24.25;15.05;;;8.10;66.20;;;;;;4971661;28;20043;-46
2022/01/25 14:51:45;;;;;;;31.70;19.33;;;8.00;66.20;;;;;;4973181;28;20038;-47
2022/01/25 14:54:18;;;;;;;26.00;13.13;;;6.60;69.10;;;;;;4973177;28;20127;-47
2022/01/25 14:56:52;;;;;;;18.73;13.00;;;6.20;69.50;;;;;;4974025;28;20113;-47